AXCGGARGarmin  id=247  GPS 72 Software Version 2.50|2140330771
HFDTE231012
HFPLTPilot:UNREGISTERED
HFTZOTimezone:2
HFSITSite:
HPGTYGliderType:
HPGIDGliderID:
HFDTM100DATUM:WGS-1984
HFCIDCOMPETITIONID:
HFCCLCOMPETITIONCLASS:
LXCG     ICON:C:\Program Files\CompeGPS\symbols\IconsPlay\cronos.ico
LXCG     COLOR:000119000
I00
B1532393754062N00104152WA0000000027
B1532453754062N00104152WA0000000027
B1532513754043N00104246WA0000000379
B1532573754043N00104246WA0000000379
B1533033754043N00104247WA0000000381
B1533093754043N00104247WA0000000384
B1533153754043N00104247WA0000000384
B1533213754043N00104246WA0000000384
B1533273754043N00104247WA0000000384
B1533333754043N00104246WA0000000386
B1533393754043N00104247WA0000000387
B1533453754039N00104232WA0000000389
B1533513754051N00104205WA0000000393
B1533573754069N00104178WA0000000399
B1534033754068N00104153WA0000000400
B1534093754076N00104127WA0000000402
B1534153754095N00104100WA0000000405
B1534213754104N00104070WA0000000402
B1534273754104N00104043WA0000000414
B1534333754093N00104039WA0000000414
B1534393754090N00104073WA0000000417
B1534453754081N00104076WA0000000416
B1534513754105N00104051WA0000000418
B1534573754114N00104029WA0000000419
B1535033754106N00104049WA0000000421
B1535093754094N00104066WA0000000418
B1535153754081N00104080WA0000000417
B1535213754068N00104096WA0000000417
B1535273754053N00104108WA0000000417
B1535333754047N00104141WA0000000420
B1535393754045N00104176WA0000000420
B1535453754041N00104208WA0000000422
B1535513754031N00104233WA0000000427
B1535573754022N00104225WA0000000433
B1536033754015N00104217WA0000000433
B1536093754011N00104249WA0000000433
B1536153754004N00104276WA0000000435
B1536213753998N00104307WA0000000435
B1536273753990N00104337WA0000000437
B1536333753982N00104368WA0000000439
B1536393753968N00104381WA0000000441
B1536453753960N00104409WA0000000442
B1536513753950N00104439WA0000000443
B1536573753938N00104465WA0000000449
B1537033753926N00104484WA0000000458
B1537093753918N00104512WA0000000461
B1537153753910N00104543WA0000000462
B1537213753908N00104578WA0000000465
B1537273753901N00104569WA0000000466
B1537333753919N00104545WA0000000472
B1537393753907N00104554WA0000000475
B1537453753896N00104580WA0000000477
B1537513753884N00104601WA0000000482
B1537573753871N00104631WA0000000482
B1538033753855N00104660WA0000000488
B1538093753837N00104677WA0000000493
B1538153753827N00104672WA0000000494
B1538213753856N00104660WA0000000499
B1538273753855N00104637WA0000000506
B1538333753846N00104661WA0000000507
B1538393753847N00104700WA0000000505
B1538453753834N00104723WA0000000511
B1538513753826N00104706WA0000000518
B1538573753811N00104717WA0000000519
B1539033753805N00104707WA0000000522
B1539093753833N00104688WA0000000525
B1539153753836N00104670WA0000000529
B1539213753830N00104698WA0000000531
B1539273753826N00104731WA0000000535
B1539333753812N00104728WA0000000540
B1539393753800N00104724WA0000000545
B1539453753788N00104733WA0000000548
B1539513753776N00104749WA0000000550
B1539573753806N00104772WA0000000550
B1540033753818N00104748WA0000000551
B1540093753814N00104726WA0000000556
B1540153753808N00104707WA0000000565
B1540213753802N00104693WA0000000571
B1540273753800N00104715WA0000000571
B1540333753821N00104751WA0000000574
B1540393753807N00104775WA0000000581
B1540453753793N00104786WA0000000587
B1540513753782N00104813WA0000000596
B1540573753770N00104835WA0000000603
B1541033753761N00104860WA0000000610
B1541093753749N00104880WA0000000606
B1541153753738N00104903WA0000000602
B1541213753727N00104924WA0000000600
B1541273753713N00104944WA0000000602
B1541333753698N00104957WA0000000600
B1541393753680N00104976WA0000000597
B1541453753663N00104995WA0000000591
B1541513753648N00105009WA0000000588
B1541573753631N00105027WA0000000583
B1542033753613N00105045WA0000000581
B1542093753596N00105057WA0000000576
B1542153753577N00105069WA0000000573
B1542213753561N00105086WA0000000575
B1542273753544N00105106WA0000000570
B1542333753526N00105120WA0000000565
B1542393753507N00105133WA0000000558
B1542453753490N00105148WA0000000554
B1542513753473N00105163WA0000000547
B1542573753456N00105169WA0000000544
B1543033753441N00105176WA0000000537
B1543093753427N00105169WA0000000531
B1543153753427N00105139WA0000000524
B1543213753445N00105105WA0000000518
B1543273753477N00105082WA0000000513
B1543333753512N00105066WA0000000511
B1543393753548N00105052WA0000000510
B1543453753582N00105035WA0000000507
B1543513753615N00105015WA0000000508
B1543573753631N00104991WA0000000511
B1544033753624N00105010WA0000000512
B1544093753654N00105036WA0000000513
B1544153753689N00105032WA0000000519
B1544213753685N00105010WA0000000525
B1544273753671N00105017WA0000000526
B1544333753670N00105054WA0000000531
B1544393753657N00105075WA0000000536
B1544453753648N00105102WA0000000533
B1544513753636N00105122WA0000000528
B1544573753621N00105139WA0000000524
B1545033753615N00105126WA0000000516
B1545093753638N00105099WA0000000515
B1545153753660N00105074WA0000000518
B1545213753674N00105045WA0000000523
B1545273753677N00105020WA0000000524
B1545333753680N00104997WA0000000523
B1545393753696N00104969WA0000000524
B1545453753716N00104942WA0000000527
B1545513753728N00104915WA0000000529
B1545573753743N00104889WA0000000532
B1546033753736N00104882WA0000000528
B1546093753739N00104921WA0000000529
B1546153753728N00104932WA0000000528
B1546213753737N00104904WA0000000527
B1546273753760N00104877WA0000000526
B1546333753780N00104850WA0000000524
B1546393753796N00104818WA0000000522
B1546453753809N00104787WA0000000520
B1546513753817N00104758WA0000000518
B1546573753833N00104727WA0000000518
B1547033753824N00104709WA0000000519
B1547093753811N00104706WA0000000515
B1547153753813N00104743WA0000000514
B1547213753805N00104769WA0000000515
B1547273753814N00104744WA0000000521
B1547333753820N00104717WA0000000522
B1547393753818N00104691WA0000000523
B1547453753811N00104675WA0000000522
B1547513753808N00104709WA0000000524
B1547573753798N00104730WA0000000526
B1548033753808N00104708WA0000000526
B1548093753835N00104735WA0000000526
B1548153753824N00104736WA0000000528
B1548213753833N00104709WA0000000529
B1548273753830N00104687WA0000000528
B1548333753824N00104663WA0000000525
B1548393753822N00104637WA0000000523
B1548453753833N00104609WA0000000520
B1548513753841N00104577WA0000000518
B1548573753843N00104551WA0000000521
B1549033753829N00104546WA0000000524
B1549093753814N00104551WA0000000522
B1549153753813N00104523WA0000000524
B1549213753807N00104504WA0000000526
B1549273753809N00104535WA0000000529
B1549333753842N00104551WA0000000531
B1549393753865N00104529WA0000000535
B1549453753874N00104501WA0000000535
B1549513753862N00104512WA0000000534
B1549573753866N00104551WA0000000538
B1550033753850N00104563WA0000000543
B1550093753838N00104548WA0000000547
B1550153753824N00104539WA0000000544
B1550213753818N00104565WA0000000544
B1550273753825N00104603WA0000000542
B1550333753819N00104636WA0000000545
B1550393753807N00104632WA0000000549
B1550453753829N00104613WA0000000555
B1550513753855N00104644WA0000000559
B1550573753843N00104664WA0000000560
B1551033753844N00104645WA0000000563
B1551093753865N00104623WA0000000566
B1551153753858N00104603WA0000000571
B1551213753850N00104585WA0000000574
B1551273753840N00104576WA0000000572
B1551333753832N00104557WA0000000570
B1551393753827N00104538WA0000000567
B1551453753820N00104518WA0000000563
B1551513753814N00104492WA0000000562
B1551573753808N00104473WA0000000562
B1552033753796N00104491WA0000000559
B1552093753818N00104526WA0000000556
B1552153753852N00104523WA0000000554
B1552213753855N00104499WA0000000551
B1552273753851N00104473WA0000000547
B1552333753850N00104446WA0000000544
B1552393753849N00104419WA0000000541
B1552453753843N00104392WA0000000540
B1552513753837N00104367WA0000000541
B1552573753827N00104379WA0000000538
B1553033753826N00104409WA0000000536
B1553093753811N00104403WA0000000537
B1553153753809N00104379WA0000000537
B1553213753805N00104357WA0000000532
B1553273753794N00104335WA0000000528
B1553333753784N00104317WA0000000522
B1553393753773N00104298WA0000000517
B1553453753763N00104281WA0000000513
B1553513753753N00104266WA0000000510
B1553573753742N00104253WA0000000503
B1554033753733N00104236WA0000000499
B1554093753724N00104221WA0000000494
B1554153753713N00104209WA0000000492
B1554213753705N00104195WA0000000485
B1554273753716N00104169WA0000000472
B1554333753758N00104186WA0000000467
B1554393753795N00104211WA0000000461
B1554453753833N00104242WA0000000457
B1554513753868N00104271WA0000000452
B1554573753905N00104298WA0000000445
B1555033753938N00104329WA0000000442
B1555093753974N00104348WA0000000442
B1555153753998N00104325WA0000000445
B1555213753995N00104312WA0000000446
B1555273753992N00104342WA0000000448
B1555333753978N00104354WA0000000451
B1555393753977N00104333WA0000000450
B1555453754003N00104308WA0000000448
B1555513754021N00104281WA0000000449
B1555573754030N00104251WA0000000446
B1556033754043N00104220WA0000000444
B1556093754051N00104193WA0000000445
B1556153754041N00104200WA0000000444
B1556213754033N00104229WA0000000448
B1556273754024N00104255WA0000000450
B1556333754014N00104279WA0000000451
B1556393754003N00104299WA0000000449
B1556453753989N00104323WA0000000452
B1556513753975N00104347WA0000000454
B1556573753964N00104370WA0000000457
B1557033753956N00104398WA0000000457
B1557093753949N00104429WA0000000460
B1557153753940N00104455WA0000000461
B1557213753924N00104468WA0000000465
B1557273753905N00104474WA0000000471
B1557333753890N00104470WA0000000474
B1557393753885N00104444WA0000000472
B1557453753896N00104411WA0000000473
B1557513753903N00104386WA0000000474
B1557573753921N00104359WA0000000475
B1558033753941N00104333WA0000000473
B1558093753971N00104315WA0000000470
B1558153753992N00104287WA0000000469
B1558213754005N00104257WA0000000467
B1558273754016N00104229WA0000000470
B1558333754008N00104224WA0000000471
B1558393754007N00104259WA0000000469
B1558453753998N00104272WA0000000464
B1558513754012N00104242WA0000000461
B1558573754031N00104213WA0000000458
B1559033754048N00104181WA0000000456
B1559093754064N00104151WA0000000456
B1559153754077N00104121WA0000000456
B1559213754089N00104090WA0000000456
B1559273754097N00104062WA0000000461
B1559333754095N00104039WA0000000467
B1559393754091N00104019WA0000000471
B1559453754077N00104034WA0000000476
B1559513754079N00104070WA0000000477
B1559573754067N00104079WA0000000475
B1600033754079N00104052WA0000000475
B1600093754095N00104026WA0000000479
B1600153754090N00104013WA0000000482
B1600213754082N00104043WA0000000481
B1600273754075N00104083WA0000000481
B1600333754066N00104124WA0000000482
B1600393754054N00104127WA0000000480
B1600453754071N00104105WA0000000478
B1600513754087N00104087WA0000000479
B1600573754096N00104063WA0000000480
B1601033754107N00104040WA0000000477
B1601093754107N00104025WA0000000475
B1601153754096N00104053WA0000000474
B1601213754084N00104088WA0000000473
B1601273754075N00104127WA0000000471
B1601333754064N00104163WA0000000470
B1601393754051N00104191WA0000000473
B1601453754039N00104222WA0000000473
B1601513754026N00104253WA0000000473
B1601573754014N00104283WA0000000474
B1602033754004N00104316WA0000000477
B1602093753991N00104333WA0000000484
B1602153753977N00104340WA0000000485
B1602213753971N00104317WA0000000488
B1602273753960N00104310WA0000000488
B1602333753962N00104343WA0000000492
B1602393753954N00104363WA0000000492
B1602453753954N00104340WA0000000489
B1602513753974N00104310WA0000000493
B1602573753983N00104283WA0000000495
B1603033753970N00104290WA0000000496
B1603093753965N00104327WA0000000494
B1603153753952N00104355WA0000000497
B1603213753943N00104384WA0000000492
B1603273753935N00104421WA0000000492
B1603333753925N00104452WA0000000490
B1603393753912N00104476WA0000000491
B1603453753904N00104509WA0000000491
B1603513753893N00104540WA0000000495
B1603573753877N00104543WA0000000498
B1604033753879N00104517WA0000000499
B1604093753886N00104492WA0000000499
B1604153753874N00104507WA0000000500
B1604213753874N00104545WA0000000500
B1604273753860N00104576WA0000000503
B1604333753842N00104589WA0000000512
B1604393753822N00104601WA0000000515
B1604453753809N00104595WA0000000517
B1604513753800N00104616WA0000000518
B1604573753813N00104658WA0000000516
B1605033753817N00104700WA0000000516
B1605093753804N00104710WA0000000513
B1605153753803N00104686WA0000000511
B1605213753804N00104659WA0000000506
B1605273753813N00104629WA0000000502
B1605333753825N00104602WA0000000501
B1605393753827N00104575WA0000000503
B1605453753816N00104565WA0000000502
B1605513753828N00104598WA0000000499
B1605573753855N00104582WA0000000500
B1606033753881N00104558WA0000000500
B1606093753892N00104529WA0000000500
B1606153753884N00104514WA0000000500
B1606213753887N00104549WA0000000501
B1606273753877N00104572WA0000000502
B1606333753865N00104597WA0000000503
B1606393753857N00104628WA0000000502
B1606453753847N00104622WA0000000499
B1606513753864N00104593WA0000000498
B1606573753884N00104566WA0000000499
B1607033753873N00104564WA0000000500
B1607093753869N00104596WA0000000502
B1607153753857N00104622WA0000000503
B1607213753843N00104631WA0000000504
B1607273753851N00104607WA0000000502
B1607333753886N00104594WA0000000502
B1607393753906N00104570WA0000000503
B1607453753895N00104558WA0000000508
B1607513753882N00104563WA0000000507
B1607573753876N00104599WA0000000507
B1608033753865N00104630WA0000000507
B1608093753854N00104659WA0000000510
B1608153753842N00104688WA0000000510
B1608213753831N00104716WA0000000512
B1608273753821N00104750WA0000000512
B1608333753811N00104784WA0000000516
B1608393753803N00104821WA0000000517
B1608453753792N00104854WA0000000518
B1608513753780N00104884WA0000000517
B1608573753765N00104910WA0000000522
B1609033753753N00104937WA0000000522
B1609093753739N00104945WA0000000523
B1609153753739N00104920WA0000000522
B1609213753744N00104894WA0000000520
B1609273753752N00104869WA0000000521
B1609333753741N00104854WA0000000520
B1609393753733N00104837WA0000000518
B1609453753729N00104816WA0000000520
B1609513753726N00104796WA0000000520
B1609573753716N00104780WA0000000517
B1610033753707N00104764WA0000000515
B1610093753701N00104742WA0000000510
B1610153753694N00104721WA0000000505
B1610213753687N00104699WA0000000500
B1610273753683N00104675WA0000000496
B1610333753681N00104649WA0000000491
B1610393753681N00104622WA0000000486
B1610453753677N00104598WA0000000480
B1610513753673N00104574WA0000000474
B1610573753668N00104550WA0000000471
B1611033753667N00104522WA0000000469
B1611093753665N00104499WA0000000467
B1611153753649N00104499WA0000000467
B1611213753637N00104493WA0000000462
B1611273753668N00104480WA0000000455
B1611333753707N00104481WA0000000450
B1611393753747N00104484WA0000000444
B1611453753788N00104487WA0000000440
B1611513753828N00104488WA0000000436
B1611573753868N00104489WA0000000434
B1612033753902N00104474WA0000000431
B1612093753937N00104458WA0000000428
B1612153753961N00104430WA0000000435
B1612213753974N00104405WA0000000443
B1612273753987N00104383WA0000000445
B1612333753992N00104362WA0000000449
B1612393753987N00104348WA0000000453
B1612453753975N00104373WA0000000457
B1612513753962N00104399WA0000000462
B1612573753949N00104425WA0000000463
B1613033753945N00104404WA0000000467
B1613093753951N00104381WA0000000468
B1613153753945N00104361WA0000000473
B1613213753932N00104360WA0000000475
B1613273753916N00104378WA0000000477
B1613333753900N00104378WA0000000475
B1613393753919N00104356WA0000000472
B1613453753953N00104349WA0000000473
B1613513753975N00104331WA0000000474
B1613573753984N00104306WA0000000475
B1614033753999N00104283WA0000000479
B1614093753989N00104283WA0000000480
B1614153753985N00104320WA0000000485
B1614213753971N00104344WA0000000485
B1614273753964N00104383WA0000000486
B1614333753952N00104416WA0000000487
B1614393753942N00104448WA0000000487
B1614453753926N00104462WA0000000491
B1614513753908N00104462WA0000000490
B1614573753900N00104442WA0000000490
B1615033753917N00104415WA0000000489
B1615093753936N00104387WA0000000491
B1615153753925N00104382WA0000000490
B1615213753924N00104420WA0000000489
B1615273753920N00104458WA0000000490
B1615333753911N00104447WA0000000488
B1615393753938N00104431WA0000000487
B1615453753955N00104408WA0000000488
B1615513753958N00104389WA0000000488
B1615573753946N00104412WA0000000488
B1616033753936N00104448WA0000000487
B1616093753924N00104481WA0000000490
B1616153753911N00104515WA0000000489
B1616213753900N00104550WA0000000490
B1616273753887N00104586WA0000000494
B1616333753871N00104604WA0000000498
B1616393753857N00104628WA0000000500
B1616453753849N00104657WA0000000507
B1616513753830N00104665WA0000000516
B1616573753810N00104665WA0000000521
B1617033753796N00104651WA0000000524
B1617093753782N00104664WA0000000524
B1617153753776N00104701WA0000000523
B1617213753763N00104707WA0000000520
B1617273753783N00104680WA0000000522
B1617333753808N00104659WA0000000522
B1617393753821N00104635WA0000000525
B1617453753806N00104642WA0000000531
B1617513753811N00104678WA0000000531
B1617573753816N00104719WA0000000532
B1618033753800N00104721WA0000000538
B1618093753786N00104717WA0000000544
B1618153753774N00104727WA0000000542
B1618213753762N00104711WA0000000542
B1618273753757N00104691WA0000000539
B1618333753758N00104662WA0000000537
B1618393753761N00104633WA0000000536
B1618453753772N00104603WA0000000539
B1618513753762N00104586WA0000000538
B1618573753760N00104618WA0000000540
B1619033753792N00104625WA0000000543
B1619093753803N00104597WA0000000549
B1619153753788N00104589WA0000000552
B1619213753786N00104625WA0000000555
B1619273753818N00104636WA0000000561
B1619333753833N00104611WA0000000570
B1619393753821N00104602WA0000000573
B1619453753819N00104635WA0000000577
B1619513753852N00104650WA0000000583
B1619573753863N00104626WA0000000587
B1620033753851N00104617WA0000000596
B1620093753836N00104624WA0000000599
B1620153753820N00104621WA0000000600
B1620213753806N00104605WA0000000602
B1620273753800N00104584WA0000000609
B1620333753788N00104572WA0000000619
B1620393753773N00104588WA0000000620
B1620453753781N00104627WA0000000617
B1620513753816N00104630WA0000000614
B1620573753816N00104607WA0000000618
B1621033753809N00104587WA0000000619
B1621093753803N00104570WA0000000616
B1621153753794N00104592WA0000000615
B1621213753822N00104621WA0000000615
B1621273753846N00104605WA0000000617
B1621333753840N00104585WA0000000618
B1621393753832N00104569WA0000000621
B1621453753824N00104553WA0000000622
B1621513753808N00104556WA0000000624
B1621573753796N00104542WA0000000620
B1622033753792N00104518WA0000000619
B1622093753789N00104493WA0000000618
B1622153753783N00104472WA0000000612
B1622213753778N00104449WA0000000606
B1622273753773N00104426WA0000000601
B1622333753766N00104403WA0000000594
B1622393753759N00104376WA0000000587
B1622453753754N00104347WA0000000579
B1622513753751N00104317WA0000000572
B1622573753746N00104289WA0000000564
B1623033753741N00104259WA0000000559
B1623093753736N00104228WA0000000552
B1623153753732N00104197WA0000000546
B1623213753728N00104167WA0000000539
B1623273753724N00104138WA0000000534
B1623333753721N00104109WA0000000530
B1623393753721N00104078WA0000000532
B1623453753724N00104053WA0000000527
B1623513753726N00104028WA0000000525
B1623573753727N00104003WA0000000523
B1624033753732N00103977WA0000000517
B1624093753737N00103951WA0000000510
B1624153753742N00103924WA0000000504
B1624213753749N00103897WA0000000499
B1624273753757N00103872WA0000000491
B1624333753779N00103853WA0000000483
B1624393753815N00103881WA0000000475
B1624453753844N00103918WA0000000466
B1624513753874N00103957WA0000000459
B1624573753904N00103995WA0000000452
B1625033753932N00104038WA0000000449
B1625093753957N00104085WA0000000444
B1625153753984N00104129WA0000000444
B1625213754006N00104172WA0000000442
B1625273754025N00104219WA0000000440
B1625333754026N00104263WA0000000440
B1625393754017N00104300WA0000000445
B1625453754002N00104324WA0000000449
B1625513753987N00104353WA0000000450
B1625573753971N00104382WA0000000455
B1626033753959N00104412WA0000000461
B1626093753946N00104428WA0000000467
B1626153753935N00104447WA0000000466
B1626213753926N00104475WA0000000465
B1626273753920N00104512WA0000000466
B1626333753909N00104543WA0000000466
B1626393753892N00104567WA0000000469
B1626453753874N00104579WA0000000474
B1626513753856N00104568WA0000000486
B1626573753841N00104553WA0000000489
B1627033753829N00104538WA0000000492
B1627093753819N00104524WA0000000493
B1627153753817N00104557WA0000000492
B1627213753844N00104584WA0000000497
B1627273753865N00104564WA0000000496
B1627333753853N00104553WA0000000498
B1627393753838N00104563WA0000000496
B1627453753833N00104602WA0000000500
B1627513753826N00104632WA0000000503
B1627573753818N00104660WA0000000504
B1628033753817N00104638WA0000000508
B1628093753851N00104627WA0000000511
B1628153753861N00104602WA0000000513
B1628213753848N00104592WA0000000517
B1628273753838N00104620WA0000000523
B1628333753833N00104653WA0000000525
B1628393753825N00104674WA0000000526
B1628453753830N00104652WA0000000526
B1628513753851N00104626WA0000000528
B1628573753842N00104613WA0000000534
B1629033753841N00104643WA0000000534
B1629093753838N00104672WA0000000533
B1629153753839N00104654WA0000000532
B1629213753869N00104635WA0000000535
B1629273753880N00104607WA0000000540
B1629333753870N00104600WA0000000548
B1629393753858N00104593WA0000000550
B1629453753871N00104564WA0000000555
B1629513753878N00104535WA0000000564
B1629573753865N00104539WA0000000568
B1630033753863N00104575WA0000000569
B1630093753851N00104569WA0000000573
B1630153753847N00104546WA0000000575
B1630213753837N00104543WA0000000574
B1630273753846N00104580WA0000000577
B1630333753853N00104617WA0000000573
B1630393753848N00104603WA0000000572
B1630453753876N00104583WA0000000573
B1630513753886N00104557WA0000000575
B1630573753873N00104564WA0000000580
B1631033753871N00104599WA0000000579
B1631093753870N00104634WA0000000579
B1631153753867N00104669WA0000000577
B1631213753861N00104699WA0000000576
B1631273753857N00104680WA0000000578
B1631333753873N00104655WA0000000577
B1631393753868N00104643WA0000000577
B1631453753862N00104673WA0000000576
B1631513753855N00104704WA0000000575
B1631573753853N00104683WA0000000572
B1632033753859N00104656WA0000000571
B1632093753875N00104626WA0000000571
B1632153753894N00104597WA0000000571
B1632213753911N00104568WA0000000570
B1632273753925N00104539WA0000000568
B1632333753934N00104510WA0000000571
B1632393753929N00104492WA0000000575
B1632453753916N00104511WA0000000578
B1632513753912N00104545WA0000000576
B1632573753908N00104577WA0000000575
B1633033753902N00104566WA0000000573
B1633093753915N00104539WA0000000573
B1633153753927N00104511WA0000000571
B1633213753942N00104482WA0000000572
B1633273753955N00104452WA0000000571
B1633333753966N00104421WA0000000570
B1633393753978N00104391WA0000000571
B1633453753975N00104372WA0000000573
B1633513753964N00104394WA0000000576
B1633573753958N00104428WA0000000578
B1634033753954N00104417WA0000000577
B1634093753968N00104390WA0000000578
B1634153753980N00104361WA0000000581
B1634213753988N00104336WA0000000584
B1634273753980N00104336WA0000000585
B1634333753976N00104368WA0000000585
B1634393753972N00104353WA0000000585
B1634453753987N00104324WA0000000584
B1634513753999N00104294WA0000000584
B1634573754008N00104265WA0000000584
B1635033754020N00104238WA0000000581
B1635093754038N00104210WA0000000580
B1635153754053N00104183WA0000000577
B1635213754066N00104156WA0000000573
B1635273754080N00104128WA0000000569
B1635333754093N00104099WA0000000565
B1635393754108N00104071WA0000000561
B1635453754118N00104043WA0000000560
B1635513754127N00104016WA0000000561
B1635573754134N00103992WA0000000557
B1636033754144N00103964WA0000000552
B1636093754155N00103933WA0000000548
B1636153754165N00103903WA0000000544
B1636213754175N00103875WA0000000542
B1636273754184N00103848WA0000000538
B1636333754192N00103821WA0000000536
B1636393754200N00103794WA0000000533
B1636453754208N00103767WA0000000531
B1636513754215N00103739WA0000000529
B1636573754224N00103712WA0000000526
B1637033754231N00103684WA0000000525
B1637093754239N00103657WA0000000523
B1637153754244N00103632WA0000000520
B1637213754250N00103607WA0000000514
B1637273754255N00103583WA0000000510
B1637333754260N00103560WA0000000506
B1637393754266N00103537WA0000000502
B1637453754272N00103513WA0000000495
B1637513754279N00103488WA0000000491
B1637573754284N00103463WA0000000485
B1638033754289N00103435WA0000000480
B1638093754296N00103407WA0000000476
B1638153754306N00103378WA0000000472
B1638213754314N00103354WA0000000464
B1638273754322N00103330WA0000000459
B1638333754327N00103308WA0000000453
B1638393754331N00103286WA0000000448
B1638453754337N00103264WA0000000442
B1638513754342N00103240WA0000000440
B1638573754347N00103218WA0000000435
B1639033754353N00103196WA0000000431
B1639093754359N00103173WA0000000423
B1639153754366N00103149WA0000000414
B1639213754373N00103124WA0000000408
B1639273754377N00103105WA0000000402
B1639333754379N00103086WA0000000392
B1639393754381N00103065WA0000000388
B1639453754383N00103044WA0000000383
B1639513754387N00103023WA0000000376
B1639573754388N00103002WA0000000368
B1640033754387N00102984WA0000000359
B1640093754378N00102978WA0000000349
B1640153754377N00103025WA0000000344
B1640213754385N00103075WA0000000337
B1640273754385N00103123WA0000000328
B1640333754366N00103149WA0000000322
B1640393754350N00103148WA0000000317
B1640453754340N00103137WA0000000312
B1640513754341N00103119WA0000000306
B1640573754345N00103101WA0000000299
B1641033754350N00103091WA0000000295
LXCG     VERSION:5.7
GAA23DE95B6A21604161192380A0D07A16E4D7ECB2883C8CE33F9D9E86393FA7BC2800
G1FD4E3E72D08C7C23E24FBF621D11F70A239D88B5DFAA7F3BD32435F855A23AE11B
G8457711CF15903C122EEDF143676545029E919A0D09324BE83BBF1A59B1617D79C5
G88092C70D49245680D332CBCD64E8E4EA1AA059A590342AE81B7B634E7ED6